Time;durP1;ratioP1;P1;durP2;ratioP2;P2;SDS_P1;SDS_P2;PMS_P1;PMS_P2;Temp;Humidity;BMP_temperature;BMP_pressure;BME280_temperature;BME280_humidity;BME280_pressure;Samples;Min_cycle;Max_cycle;Signal;HPM_P1;HPM_P2
2021/03/26 00:00:00;;;;;;;47.83;28.20;;;;;;;2.77;92.52;99985.45;1778966;80;21310;-76
2021/03/26 00:03:05;;;;;;;52.90;30.95;;;;;;;2.81;92.50;99983.34;1778936;80;21200;-77
2021/03/26 00:06:19;;;;;;;58.98;32.93;;;;;;;2.86;92.33;99980.23;1779063;80;21271;-77
2021/03/26 00:09:29;;;;;;;56.30;29.72;;;;;;;2.90;92.17;99983.03;1778992;80;21267;-77
2021/03/26 00:12:36;;;;;;;44.95;27.40;;;;;;;2.93;91.85;99984.13;1777810;80;21176;-77
2021/03/26 00:15:41;;;;;;;48.95;26.93;;;;;;;2.93;91.52;99978.72;1778969;80;21825;-77
2021/03/26 00:18:48;;;;;;;44.42;27.45;;;;;;;2.91;91.24;99979.33;1778982;80;21864;-76
2021/03/26 00:21:53;;;;;;;48.63;28.32;;;;;;;2.87;91.09;99977.42;1778991;80;21306;-77
2021/03/26 00:24:58;;;;;;;47.88;25.82;;;;;;;2.86;90.99;99979.74;1778559;80;21873;-77
2021/03/26 00:28:07;;;;;;;39.45;24.72;;;;;;;2.84;90.99;99979.53;1778832;80;21280;-76
2021/03/26 00:31:13;;;;;;;43.05;24.82;;;;;;;2.86;90.95;99973.48;1778873;80;21141;-77
2021/03/26 00:34:18;;;;;;;44.10;24.27;;;;;;;2.85;90.83;99978.03;1778973;80;21274;-76
2021/03/26 00:37:26;;;;;;;39.20;22.98;;;;;;;2.89;90.68;99978.63;1778456;80;21824;-77
2021/03/26 00:40:32;;;;;;;38.17;22.90;;;;;;;2.86;90.46;99978.39;1779071;80;21315;-76
2021/03/26 00:43:37;;;;;;;46.15;25.85;;;;;;;2.86;90.46;99986.99;1778825;80;21287;-76
2021/03/26 00:46:44;;;;;;;43.65;28.02;;;;;;;2.84;90.50;99993.04;1778965;80;21196;-76
2021/03/26 00:49:50;;;;;;;35.65;22.87;;;;;;;2.80;90.40;99991.95;1779077;80;21155;-76
2021/03/26 00:52:55;;;;;;;43.90;24.90;;;;;;;2.78;90.33;99993.09;1778922;80;21196;-76
2021/03/26 00:56:01;;;;;;;42.30;25.17;;;;;;;2.76;90.28;99997.25;1777280;80;21215;-76
2021/03/26 00:59:06;;;;;;;46.00;24.55;;;;;;;2.76;90.29;99994.55;1778309;80;21176;-76
2021/03/26 01:02:11;;;;;;;34.83;22.58;;;;;;;2.78;90.30;99997.99;1750084;80;21821;-76
2021/03/26 01:05:20;;;;;;;37.23;24.25;;;;;;;2.80;90.32;99997.34;1779055;80;21291;-76
2021/03/26 01:08:26;;;;;;;38.48;24.60;;;;;;;2.79;90.20;100003.75;1778846;80;21172;-76
2021/03/26 01:11:40;;;;;;;35.70;22.55;;;;;;;2.80;90.10;100007.30;1777475;80;21220;-76
2021/03/26 01:14:47;;;;;;;39.98;23.50;;;;;;;2.81;90.00;100005.80;1778893;80;21232;-76
2021/03/26 01:17:54;;;;;;;33.33;22.75;;;;;;;2.85;89.91;100012.30;1782236;79;21195;-76
2021/03/26 01:21:02;;;;;;;39.48;23.15;;;;;;;2.88;89.88;100014.75;1760502;81;21840;-76
2021/03/26 01:24:09;;;;;;;35.70;23.12;;;;;;;2.89;89.72;100015.10;1793350;80;21270;-76
2021/03/26 01:27:16;;;;;;;31.23;22.17;;;;;;;2.90;89.60;100012.75;1760138;81;21758;-76
2021/03/26 01:30:26;;;;;;;33.75;22.00;;;;;;;2.90;89.54;100013.61;1793359;80;21157;-76
2021/03/26 01:33:30;;;;;;;29.85;21.37;;;;;;;2.93;89.49;100021.45;1760466;81;21310;-76
2021/03/26 01:36:37;;;;;;;31.00;21.55;;;;;;;2.94;89.33;100015.55;1793299;80;21863;-76
2021/03/26 01:39:42;;;;;;;32.67;22.87;;;;;;;2.93;89.26;100017.90;1760459;81;21276;-76
2021/03/26 01:42:48;;;;;;;30.12;21.00;;;;;;;2.93;89.06;100017.90;1793363;80;21298;-76
2021/03/26 01:45:53;;;;;;;34.38;22.80;;;;;;;2.89;88.96;100015.95;1760621;81;21220;-76
2021/03/26 01:49:06;;;;;;;33.70;20.97;;;;;;;2.84;88.84;100018.20;1791677;80;21167;-76
2021/03/26 01:52:14;;;;;;;42.15;24.02;;;;;;;2.80;88.87;100020.80;1760368;81;21192;-76
2021/03/26 01:55:16;;;;;;;38.10;21.48;;;;;;;2.72;88.81;100021.46;1790424;80;21262;-76
2021/03/26 01:58:28;;;;;;;31.57;21.57;;;;;;;2.68;88.89;100021.39;1760310;81;21191;-76
2021/03/26 02:01:48;;;;;;;33.00;20.72;;;;;;;2.66;89.07;100024.70;1793432;80;21157;-76
2021/03/26 02:04:55;;;;;;;30.57;21.25;;;;;;;2.67;89.28;100028.26;1760458;81;21318;-76
2021/03/26 02:08:03;;;;;;;33.83;20.72;;;;;;;2.64;89.28;100028.05;1793172;80;21334;-76
2021/03/26 02:11:40;;;;;;;34.15;21.93;;;;;;;2.61;89.22;100033.70;1769743;80;21301;-76
2021/03/26 02:14:52;;;;;;;31.48;21.87;;;;;;;2.59;89.20;100032.98;1776203;81;21303;-76
2021/03/26 02:17:58;;;;;;;33.30;21.07;;;;;;;2.56;89.11;100033.23;1793279;80;21820;-76
2021/03/26 02:21:08;;;;;;;33.70;22.70;;;;;;;2.50;89.14;100034.63;1760497;81;21267;-76
2021/03/26 02:24:16;;;;;;;40.40;21.97;;;;;;;2.51;89.35;100044.44;1793323;80;22215;-76
2021/03/26 02:27:29;;;;;;;32.13;21.17;;;;;;;2.59;89.51;100042.44;1747460;81;21291;-76
2021/03/26 02:30:40;;;;;;;36.17;21.42;;;;;;;2.64;89.42;100040.70;1793285;80;21195;-76
2021/03/26 02:33:45;;;;;;;34.63;21.70;;;;;;;2.65;89.14;100050.00;1760523;81;21298;-76
2021/03/26 02:36:53;;;;;;;36.83;20.92;;;;;;;2.62;88.82;100039.95;1793334;80;21302;-76
2021/03/26 02:39:58;;;;;;;38.48;22.37;;;;;;;2.66;88.84;100041.41;1760382;81;21204;-76
2021/03/26 02:43:08;;;;;;;33.45;22.20;;;;;;;2.72;88.86;100038.16;1793310;80;21196;-76
2021/03/26 02:46:27;;;;;;;29.98;21.05;;;;;;;2.75;88.67;100044.16;1760238;81;21303;-76
2021/03/26 02:50:16;;;;;;;32.63;20.75;;;;;;;2.73;88.52;100039.41;1793430;80;21258;-76
2021/03/26 02:53:46;;;;;;;42.27;21.17;;;;;;;2.72;88.46;100037.66;1760375;81;21287;-76
2021/03/26 02:56:59;;;;;;;34.75;20.08;;;;;;;2.66;88.17;100040.91;1793424;80;21305;-76
2021/03/26 03:00:25;;;;;;;37.83;22.93;;;;;;;2.61;88.08;100046.34;1760359;81;21797;-76
2021/03/26 03:03:33;;;;;;;39.70;20.85;;;;;;;2.55;88.05;100043.19;1793251;80;21204;-76
2021/03/26 03:06:46;;;;;;;35.60;20.27;;;;;;;2.54;88.16;100047.35;1760377;81;21818;-76
2021/03/26 03:09:56;;;;;;;34.67;20.65;;;;;;;2.55;88.42;100047.73;1793183;80;21212;-76
2021/03/26 03:13:06;;;;;;;36.20;22.42;;;;;;;2.54;88.34;100050.05;1760368;81;21216;-76
2021/03/26 03:16:23;;;;;;;29.72;20.25;;;;;;;2.49;88.11;100049.59;1793260;80;21294;-76
2021/03/26 03:20:12;;;;;;;31.03;19.57;;;;;;;2.42;88.14;100054.67;1760920;81;21311;-76
2021/03/26 03:23:42;;;;;;;30.70;20.72;;;;;;;2.40;88.21;100055.77;1762580;81;21278;-76
2021/03/26 03:27:06;;;;;;;33.25;20.15;;;;;;;2.28;88.16;100062.58;1791994;80;21780;-76
2021/03/26 03:30:39;;;;;;;31.50;20.15;;;;;;;2.22;88.41;100060.41;1778032;80;21639;-76
2021/03/26 03:34:01;;;;;;;31.87;21.85;;;;;;;2.21;88.61;100074.90;1788523;80;21294;-76
2021/03/26 03:37:33;;;;;;;38.60;23.90;;;;;;;2.24;89.00;100071.92;1788535;80;21307;-76
2021/03/26 03:40:52;;;;;;;31.33;20.70;;;;;;;2.33;89.17;100066.74;1788606;80;21264;-76
2021/03/26 03:44:29;;;;;;;38.42;23.40;;;;;;;2.41;89.05;100067.81;1788522;80;21156;-76
2021/03/26 03:47:49;;;;;;;38.30;23.25;;;;;;;2.48;88.88;100069.48;1788671;80;21311;-76
2021/03/26 03:51:16;;;;;;;41.53;23.75;;;;;;;2.51;88.59;100071.44;1788624;80;21738;-76
2021/03/26 03:54:26;;;;;;;38.85;24.25;;;;;;;2.54;88.38;100068.48;1788678;80;21823;-76
2021/03/26 03:57:40;;;;;;;35.78;21.48;;;;;;;2.56;88.15;100064.30;1788731;80;21290;-76
2021/03/26 04:00:52;;;;;;;42.60;24.67;;;;;;;2.58;87.92;100071.75;1788535;80;21853;-76
2021/03/26 04:04:05;;;;;;;37.63;23.25;;;;;;;2.58;87.68;100076.30;1788569;80;21164;-76
2021/03/26 04:07:14;;;;;;;32.90;21.62;;;;;;;2.57;87.50;100075.45;1788610;80;21203;-77
2021/03/26 04:10:21;;;;;;;37.13;22.55;;;;;;;2.54;87.42;100075.23;1788582;80;21279;-76
2021/03/26 04:13:31;;;;;;;37.55;23.60;;;;;;;2.53;87.38;100075.34;1788562;80;21183;-76
2021/03/26 04:16:35;;;;;;;32.15;21.82;;;;;;;2.56;87.29;100081.34;1788417;80;21334;-76
2021/03/26 04:19:48;;;;;;;39.55;23.35;;;;;;;2.60;87.10;100079.25;1785665;80;21153;-76
2021/03/26 04:23:03;;;;;;;42.45;24.23;;;;;;;2.65;86.92;100084.26;1754290;82;21761;-76
2021/03/26 04:26:32;;;;;;;38.78;23.60;;;;;;;2.67;86.78;100089.02;1759371;81;21161;-76
2021/03/26 04:30:12;;;;;;;39.80;23.25;;;;;;;2.67;86.54;100080.42;1746668;80;21151;-76
2021/03/26 04:33:20;;;;;;;34.35;22.15;;;;;;;2.69;86.35;100088.41;1741327;82;21309;-76
2021/03/26 04:36:31;;;;;;;39.98;22.67;;;;;;;2.75;86.35;100095.48;1741353;82;21270;-76
2021/03/26 04:39:43;;;;;;;37.40;21.37;;;;;;;2.83;86.31;100098.03;1744569;80;21309;-76
2021/03/26 04:43:06;;;;;;;34.67;21.97;;;;;;;2.91;86.08;100107.66;1762868;80;21311;-76
2021/03/26 04:46:41;;;;;;;35.30;21.95;;;;;;;2.97;85.83;100103.10;1741079;82;21188;-76
2021/03/26 04:49:54;;;;;;;30.12;19.42;;;;;;;3.00;85.48;100104.17;1737489;82;21829;-76
2021/03/26 04:53:12;;;;;;;40.73;23.75;;;;;;;3.05;85.26;100107.33;1777843;80;21188;-76
2021/03/26 04:56:22;;;;;;;32.63;20.65;;;;;;;3.05;84.96;100110.88;1782340;80;21260;-76
2021/03/26 04:59:37;;;;;;;38.55;22.02;;;;;;;3.07;84.63;100118.87;1779700;80;21288;-76
2021/03/26 05:02:49;;;;;;;38.42;22.48;;;;;;;3.08;84.52;100117.88;1748860;80;21299;-76
2021/03/26 05:06:07;;;;;;;35.07;22.33;;;;;;;3.09;84.30;100120.94;1737612;82;21704;-76
2021/03/26 05:09:28;;;;;;;34.48;20.27;;;;;;;3.09;84.21;100119.59;1747690;80;21171;-76
2021/03/26 05:12:38;;;;;;;35.98;20.75;;;;;;;3.13;84.09;100124.23;1750711;80;21326;-76
2021/03/26 05:16:01;;;;;;;34.23;21.23;;;;;;;3.14;83.94;100128.64;1781629;80;21267;-76
2021/03/26 05:19:12;;;;;;;28.87;19.50;;;;;;;3.26;84.15;100137.05;1762156;80;21294;-76
2021/03/26 05:22:46;;;;;;;32.60;21.07;;;;;;;3.39;83.86;100135.46;1767991;79;21350;-76
2021/03/26 05:26:10;;;;;;;35.52;21.25;;;;;;;3.38;83.23;100142.72;1786633;80;21246;-76
2021/03/26 05:29:17;;;;;;;43.28;22.58;;;;;;;3.40;83.09;100145.31;1768181;80;21255;-76
2021/03/26 05:32:33;;;;;;;32.75;21.52;;;;;;;3.45;83.09;100142.56;1789941;79;21473;-76
2021/03/26 05:35:50;;;;;;;35.35;21.12;;;;;;;3.50;82.89;100148.42;1754773;81;21314;-78
2021/03/26 05:39:20;;;;;;;30.70;20.15;;;;;;;3.54;82.82;100155.77;1786851;79;21275;-78
2021/03/26 05:43:20;;;;;;;35.95;20.30;;;;;;;3.63;82.67;100154.96;1752536;80;21247;-78
2021/03/26 05:47:03;;;;;;;35.43;21.80;;;;;;;3.74;82.07;100163.47;1773761;79;21518;-77
2021/03/26 05:50:43;;;;;;;33.33;20.43;;;;;;;3.72;81.75;100162.77;1759403;81;21784;-79
2021/03/26 05:54:15;;;;;;;29.50;19.35;;;;;;;3.82;81.60;100168.56;1785931;79;22081;-79
2021/03/26 05:57:37;;;;;;;31.82;20.30;;;;;;;3.88;81.47;100181.19;1791847;78;21836;-77
2021/03/26 06:01:26;;;;;;;28.25;18.98;;;;;;;3.99;81.26;100190.55;1790738;78;21674;-79
2021/03/26 06:05:11;;;;;;;33.73;18.07;;;;;;;4.09;80.97;100187.37;1755928;80;22184;-78
2021/03/26 06:09:02;;;;;;;26.95;18.30;;;;;;;4.16;80.54;100189.05;1777091;80;21928;-77
2021/03/26 06:12:47;;;;;;;30.97;20.13;;;;;;;4.20;80.14;100196.75;1774875;79;21172;-78
2021/03/26 06:16:33;;;;;;;36.95;19.82;;;;;;;4.12;79.65;100193.02;1765405;81;21397;-78
2021/03/26 06:20:22;;;;;;;23.90;16.82;;;;;;;4.12;80.04;100210.11;1630495;86;21259;-78
2021/03/26 06:24:15;;;;;;;32.03;19.70;;;;;;;4.18;79.71;100210.05;1640044;85;21840;-78
2021/03/26 06:27:47;;;;;;;30.08;18.82;;;;;;;4.14;79.48;100214.02;1764232;80;21326;-76
2021/03/26 06:31:26;;;;;;;29.00;19.37;;;;;;;4.15;80.17;100213.05;1749582;80;21205;-78
2021/03/26 06:34:44;;;;;;;26.35;17.62;;;;;;;4.24;79.69;100210.88;1720653;80;21749;-80
2021/03/26 06:38:39;;;;;;;32.13;20.12;;;;;;;4.24;79.03;100204.11;1781392;78;21326;-78
2021/03/26 06:42:07;;;;;;;29.15;17.27;;;;;;;4.32;79.28;100200.19;1780537;78;21670;-78
2021/03/26 06:45:42;;;;;;;25.20;16.67;;;;;;;4.45;78.88;100212.98;1779692;78;21380;-79
2021/03/26 06:49:23;;;;;;;30.80;18.32;;;;;;;4.50;78.74;100210.70;1779487;78;21262;-78
2021/03/26 06:52:34;;;;;;;24.47;17.85;;;;;;;4.59;78.44;100211.22;1671848;80;21642;-79
2021/03/26 06:56:07;;;;;;;39.80;24.55;;;;;;;4.71;78.27;100207.91;1772575;80;21307;-78
2021/03/26 06:59:43;;;;;;;29.42;19.70;;;;;;;4.87;78.15;100203.27;1773902;80;21333;-78
2021/03/26 07:03:12;;;;;;;29.12;19.20;;;;;;;4.96;77.70;100213.75;1770881;80;21267;-78
2021/03/26 07:07:06;;;;;;;32.28;19.00;;;;;;;5.06;77.44;100215.95;1771229;80;21676;-77
2021/03/26 07:10:35;;;;;;;37.30;20.75;;;;;;;5.13;76.91;100218.47;1772953;80;21157;-78
2021/03/26 07:14:17;;;;;;;24.80;17.37;;;;;;;5.13;76.89;100218.47;1772186;79;21324;-77
2021/03/26 07:17:47;;;;;;;34.35;21.77;;;;;;;5.17;76.58;100217.16;1772866;80;21291;-77
2021/03/26 07:21:07;;;;;;;32.15;17.35;;;;;;;5.22;76.04;100217.61;1768593;80;21224;-77
2021/03/26 07:24:24;;;;;;;29.67;18.35;;;;;;;5.29;75.56;100219.23;1768615;80;21625;-77
2021/03/26 07:27:50;;;;;;;30.90;17.32;;;;;;;5.26;75.64;100231.20;1767951;80;21790;-78
2021/03/26 07:31:09;;;;;;;26.68;16.17;;;;;;;5.29;75.37;100228.22;1772713;80;22257;-78
2021/03/26 07:34:31;;;;;;;27.13;16.93;;;;;;;5.30;75.33;100227.72;1767140;80;21203;-77
2021/03/26 07:37:58;;;;;;;24.65;14.90;;;;;;;5.31;75.60;100227.56;1766645;80;21180;-79
2021/03/26 07:41:42;;;;;;;28.87;17.48;;;;;;;5.38;75.23;100224.64;1772709;80;21825;-79
2021/03/26 07:45:11;;;;;;;25.32;15.18;;;;;;;5.42;75.23;100219.78;1769573;80;21176;-78
2021/03/26 07:48:54;;;;;;;28.57;15.18;;;;;;;5.52;75.06;100227.40;1770546;80;21289;-79
2021/03/26 07:52:12;;;;;;;24.18;16.73;;;;;;;5.74;74.88;100238.43;1773467;80;21290;-78
2021/03/26 07:55:35;;;;;;;27.60;16.87;;;;;;;5.90;74.87;100230.50;1773017;80;21649;-79
2021/03/26 07:59:04;;;;;;;25.12;15.35;;;;;;;6.07;74.48;100231.63;1767202;80;21620;-79
2021/03/26 08:02:59;;;;;;;30.30;19.50;;;;;;;6.21;74.33;100230.77;1768805;80;21197;-78
2021/03/26 08:06:28;;;;;;;34.38;20.60;;;;;;;6.29;73.86;100230.37;1768596;80;21187;-77
2021/03/26 08:09:57;;;;;;;;;;;;;;;6.34;73.35;100233.98;1771029;80;21318;-79
2021/03/26 08:13:26;;;;;;;37.17;23.85;;;;;;;6.37;73.43;100239.12;1770278;80;20773;-78
2021/03/26 08:17:07;;;;;;;24.52;16.85;;;;;;;6.36;73.24;100228.77;1761607;80;21797;-80
2021/03/26 08:20:40;;;;;;;30.90;18.70;;;;;;;6.35;73.26;100235.22;1767457;80;21818;-79
2021/03/26 08:24:23;;;;;;;28.25;18.05;;;;;;;6.24;73.10;100239.47;1745591;80;21306;-78
2021/03/26 08:28:16;;;;;;;24.85;16.12;;;;;;;6.21;72.00;100237.55;1769397;80;21320;-78
2021/03/26 08:32:04;;;;;;;25.05;17.17;;;;;;;6.17;72.40;100238.88;1777989;78;21298;-80
2021/03/26 08:35:45;;;;;;;23.52;14.73;;;;;;;6.17;73.13;100248.39;1775377;80;21879;-80
2021/03/26 08:39:05;;;;;;;23.42;15.55;;;;;;;6.22;72.45;100244.21;1771806;80;21187;-80
2021/03/26 08:42:30;;;;;;;25.92;15.70;;;;;;;6.27;72.07;100252.77;1767689;80;22114;-80
2021/03/26 08:45:42;;;;;;;23.83;16.12;;;;;;;6.34;71.22;100253.00;1773711;80;21289;-80
2021/03/26 08:49:35;;;;;;;25.25;15.72;;;;;;;6.36;71.34;100254.58;1770040;80;21743;-79
2021/03/26 08:53:27;;;;;;;34.50;16.90;;;;;;;6.42;71.60;100253.63;1769913;80;21314;-78
2021/03/26 08:56:57;;;;;;;21.40;14.30;;;;;;;6.40;72.12;100254.64;1768311;80;21294;-79
2021/03/26 09:00:13;;;;;;;16.95;10.98;;;;;;;6.39;71.49;100269.20;1765117;80;21168;-79
2021/03/26 09:03:42;;;;;;;19.77;13.55;;;;;;;6.38;69.40;100254.42;1768054;80;21307;-80
2021/03/26 09:07:32;;;;;;;19.57;11.25;;;;;;;6.29;69.30;100257.53;1765007;80;21860;-81
2021/03/26 09:11:11;;;;;;;29.02;15.55;;;;;;;6.24;69.16;100263.06;1763233;80;21218;-78
2021/03/26 09:15:00;;;;;;;19.75;11.68;;;;;;;6.32;70.95;100259.95;1770436;80;21811;-79
2021/03/26 09:18:36;;;;;;;24.77;12.53;;;;;;;6.50;70.80;100257.80;1710741;80;21966;-78
2021/03/26 09:22:01;;;;;;;19.23;13.00;;;;;;;6.59;69.40;100251.47;1768282;80;21287;-78
2021/03/26 09:25:32;;;;;;;15.95;12.18;;;;;;;6.64;67.17;100255.94;1761406;79;21695;-78
2021/03/26 09:28:50;;;;;;;18.35;11.05;;;;;;;6.68;67.09;100261.42;1783977;79;21305;-79
2021/03/26 09:32:21;;;;;;;16.07;9.10;;;;;;;6.79;69.19;100253.55;1784590;79;21295;-80
2021/03/26 09:35:36;;;;;;;16.50;10.50;;;;;;;6.88;67.92;100252.62;1766279;79;21545;-80
2021/03/26 09:38:53;;;;;;;13.05;9.43;;;;;;;6.96;66.21;100255.41;1786404;79;21274;-79
2021/03/26 09:42:13;;;;;;;10.53;8.25;;;;;;;7.02;65.95;100263.48;1786589;79;21911;-81
2021/03/26 09:45:35;;;;;;;17.30;10.05;;;;;;;7.06;64.46;100258.08;1785870;79;21301;-80
2021/03/26 09:49:01;;;;;;;13.88;8.35;;;;;;;7.07;63.01;100257.06;1786678;79;21274;-79
2021/03/26 09:52:27;;;;;;;14.63;9.13;;;;;;;7.08;63.31;100257.41;1786143;79;21214;-81
2021/03/26 09:55:41;;;;;;;13.22;7.60;;;;;;;7.09;63.73;100258.61;1786286;79;21344;-81
2021/03/26 09:59:12;;;;;;;9.65;7.85;;;;;;;7.18;64.66;100259.55;1786700;79;21286;-80
2021/03/26 10:02:25;;;;;;;9.93;7.72;;;;;;;7.32;65.03;100261.71;1786384;79;21891;-80
2021/03/26 10:06:07;;;;;;;15.15;7.03;;;;;;;7.45;63.17;100266.77;1784883;79;21581;-80
2021/03/26 10:09:41;;;;;;;8.58;6.22;;;;;;;7.52;60.64;100267.83;1784673;79;21203;-80
2021/03/26 10:12:48;;;;;;;9.70;7.25;;;;;;;7.59;60.47;100263.48;1785101;79;21159;-79
2021/03/26 10:16:10;;;;;;;10.58;6.67;;;;;;;7.69;60.64;100271.03;1775568;79;21207;-80
2021/03/26 10:19:26;;;;;;;10.60;6.15;;;;;;;7.76;61.43;100269.03;1773768;79;22062;-81
2021/03/26 10:22:40;;;;;;;9.10;5.50;;;;;;;7.81;58.80;100276.20;1775494;79;21266;-81
2021/03/26 10:25:58;;;;;;;8.33;5.60;;;;;;;7.85;58.01;100275.73;1746431;79;21941;-81
2021/03/26 10:29:14;;;;;;;6.17;4.42;;;;;;;7.84;56.02;100271.81;1772078;80;21164;-79
2021/03/26 10:32:34;;;;;;;7.15;5.22;;;;;;;7.88;57.91;100271.34;1784138;78;21821;-79
2021/03/26 10:35:40;;;;;;;10.25;6.05;;;;;;;7.93;56.93;100267.63;1766756;80;21180;-79
2021/03/26 10:38:54;;;;;;;10.90;7.55;;;;;;;7.97;56.99;100261.87;1772639;80;21166;-78
2021/03/26 10:42:34;;;;;;;8.73;6.15;;;;;;;8.03;55.97;100261.22;1766513;80;21223;-79
2021/03/26 10:45:42;;;;;;;;;;;;;;;8.11;57.99;100262.63;1782173;78;21794;-79
2021/03/26 10:49:09;;;;;;;7.78;5.85;;;;;;;8.12;57.41;100266.55;1742610;81;20407;-79
2021/03/26 10:52:40;;;;;;;5.72;4.50;;;;;;;8.09;56.10;100266.01;1768323;80;21853;-79
2021/03/26 10:56:09;;;;;;;7.58;5.62;;;;;;;8.05;56.07;100275.03;1769434;80;21537;-79
2021/03/26 10:59:26;;;;;;;9.88;5.72;;;;;;;8.08;57.45;100270.61;1765911;80;21848;-79
2021/03/26 11:03:04;;;;;;;8.48;5.47;;;;;;;8.12;55.23;100271.14;1773650;80;21314;-79
2021/03/26 11:06:18;;;;;;;6.85;4.58;;;;;;;8.10;53.94;100265.88;1772174;80;21278;-79
2021/03/26 11:09:38;;;;;;;6.28;4.53;;;;;;;8.17;54.99;100268.79;1772566;80;21306;-80
2021/03/26 11:13:00;;;;;;;7.30;4.62;;;;;;;8.23;53.57;100272.73;1769064;80;21777;-79
2021/03/26 11:16:25;;;;;;;10.38;5.45;;;;;;;8.31;53.67;100280.45;1726317;80;21159;-80
2021/03/26 11:19:37;;;;;;;10.98;7.50;;;;;;;8.39;52.59;100270.98;1773027;80;21274;-80
2021/03/26 11:22:44;;;;;;;7.87;5.83;;;;;;;8.47;53.53;100267.94;1769361;80;21160;-80
2021/03/26 11:26:07;;;;;;;10.65;6.87;;;;;;;8.56;54.07;100272.41;1772521;80;21334;-80
2021/03/26 11:29:32;;;;;;;12.28;8.45;;;;;;;8.60;55.74;100264.25;1766294;80;21141;-79
2021/03/26 11:32:38;;;;;;;11.78;8.68;;;;;;;8.63;55.08;100266.14;1771458;80;21334;-79
2021/03/26 11:35:48;;;;;;;13.53;9.08;;;;;;;8.59;54.08;100271.58;1773786;80;21172;-79
2021/03/26 11:38:55;;;;;;;11.73;7.80;;;;;;;8.54;52.02;100270.37;1774997;79;21290;-79
2021/03/26 11:42:16;;;;;;;11.35;7.45;;;;;;;8.58;50.80;100267.15;1765493;80;21801;-79
2021/03/26 11:45:25;;;;;;;9.45;6.22;;;;;;;8.66;52.75;100262.25;1772791;80;21290;-79
2021/03/26 11:48:58;;;;;;;7.97;5.53;;;;;;;8.72;51.20;100263.45;1769374;80;21369;-78
2021/03/26 11:52:13;;;;;;;11.63;8.28;;;;;;;8.77;46.51;100264.66;1769715;80;21312;-78
2021/03/26 11:55:37;;;;;;;9.48;7.00;;;;;;;8.76;49.52;100264.84;1773269;79;21892;-77
2021/03/26 11:59:04;;;;;;;14.35;9.28;;;;;;;8.75;48.59;100258.53;1771562;80;21153;-79
2021/03/26 12:02:34;;;;;;;16.07;10.15;;;;;;;8.78;50.99;100265.51;1767221;80;21313;-78
2021/03/26 12:06:11;;;;;;;22.13;12.35;;;;;;;8.72;53.27;100261.58;1778009;80;21332;-79
2021/03/26 12:09:49;;;;;;;19.05;12.78;;;;;;;8.63;53.39;100268.88;1779546;80;21351;-79
2021/03/26 12:13:14;;;;;;;37.28;24.65;;;;;;;8.63;54.94;100263.93;1769157;80;21338;-78
2021/03/26 12:16:35;;;;;;;22.85;13.95;;;;;;;8.64;54.24;100261.55;1778259;80;21132;-79
2021/03/26 12:19:43;;;;;;;19.98;13.72;;;;;;;8.66;55.83;100271.28;1777305;80;21279;-78
2021/03/26 12:23:05;;;;;;;22.02;11.75;;;;;;;8.67;55.46;100267.52;1774729;80;21266;-78
2021/03/26 12:26:35;;;;;;;19.73;10.30;;;;;;;8.69;54.59;100257.80;1774569;80;21264;-77
2021/03/26 12:29:53;;;;;;;14.87;9.05;;;;;;;8.71;52.46;100268.06;1776068;79;21904;-79
2021/03/26 12:33:11;;;;;;;14.35;9.30;;;;;;;8.72;53.25;100264.81;1781525;78;21210;-79
2021/03/26 12:36:26;;;;;;;16.65;10.28;;;;;;;8.71;53.57;100262.60;1780884;79;21336;-79
2021/03/26 12:39:38;;;;;;;25.57;13.03;;;;;;;8.71;53.74;100263.97;1762277;81;21185;-78
2021/03/26 12:42:47;;;;;;;11.38;8.83;;;;;;;8.78;54.70;100263.63;1760202;81;21267;-78
2021/03/26 12:46:05;;;;;;;11.68;8.30;;;;;;;8.83;55.04;100265.34;1779290;79;21304;-78
2021/03/26 12:49:14;;;;;;;12.73;7.83;;;;;;;8.86;54.72;100266.91;1756922;81;21271;-79
2021/03/26 12:52:51;;;;;;;14.58;8.38;;;;;;;8.85;53.65;100266.57;1775596;80;21616;-79
2021/03/26 12:56:20;;;;;;;13.32;9.48;;;;;;;8.86;53.78;100263.66;1779129;80;21848;-79
2021/03/26 12:59:32;;;;;;;13.62;7.83;;;;;;;8.91;55.34;100278.17;1771647;80;21812;-79
2021/03/26 13:02:42;;;;;;;12.53;8.85;;;;;;;8.91;56.39;100264.02;1782428;80;21151;-79
2021/03/26 13:05:48;;;;;;;;;;;;;;;8.88;56.65;100261.61;1786275;79;21769;-78
2021/03/26 13:08:55;;;;;;;11.48;8.35;;;;;;;8.89;56.36;100256.52;1752683;80;20207;-78
2021/03/26 13:12:19;;;;;;;10.72;7.40;;;;;;;8.86;57.81;100260.94;1761785;80;21745;-79
2021/03/26 13:15:35;;;;;;;12.53;7.28;;;;;;;8.82;57.05;100270.47;1769598;81;21184;-79
2021/03/26 13:18:41;;;;;;;12.07;7.58;;;;;;;8.73;56.77;100262.43;1787622;79;21838;-79
2021/03/26 13:22:14;;;;;;;13.90;7.87;;;;;;;8.75;57.31;100261.73;1773048;80;21801;-79
2021/03/26 13:25:32;;;;;;;11.55;6.65;;;;;;;8.79;56.79;100259.88;1770012;80;21235;-79
2021/03/26 13:28:49;;;;;;;9.18;6.15;;;;;;;8.84;55.70;100253.92;1767904;81;21168;-79
2021/03/26 13:31:55;;;;;;;8.60;6.95;;;;;;;8.84;55.26;100253.41;1771318;80;21188;-81
2021/03/26 13:35:06;;;;;;;12.50;7.15;;;;;;;8.84;54.08;100260.74;1760132;80;21271;-80
2021/03/26 13:38:38;;;;;;;15.32;7.20;;;;;;;8.85;56.04;100248.84;1793256;79;21175;-79
2021/03/26 13:41:50;;;;;;;9.53;6.75;;;;;;;8.91;56.83;100245.44;1785825;80;21757;-79
2021/03/26 13:45:19;;;;;;;9.68;6.80;;;;;;;8.92;54.33;100245.26;1791170;78;21533;-78
2021/03/26 13:48:24;;;;;;;12.07;6.78;;;;;;;8.94;54.07;100249.20;1785207;80;21761;-79
2021/03/26 13:51:31;;;;;;;12.03;6.30;;;;;;;8.89;54.01;100252.43;1793900;78;21368;-78
2021/03/26 13:54:54;;;;;;;9.85;6.28;;;;;;;8.88;54.21;100249.34;1793707;79;21326;-79
2021/03/26 13:58:14;;;;;;;9.25;5.97;;;;;;;8.85;56.09;100251.56;1797266;79;21817;-79
2021/03/26 14:01:35;;;;;;;8.55;5.97;;;;;;;8.81;53.83;100256.50;1797115;79;21314;-80
2021/03/26 14:05:04;;;;;;;9.33;6.25;;;;;;;8.75;54.04;100248.98;1794875;79;21925;-79
2021/03/26 14:08:20;;;;;;;8.93;6.20;;;;;;;8.70;54.38;100253.57;1771432;79;21324;-79
2021/03/26 14:11:49;;;;;;;7.75;6.10;;;;;;;8.62;54.58;100253.53;1792709;79;21274;-77
2021/03/26 14:15:02;;;;;;;9.30;6.33;;;;;;;8.57;54.44;100260.51;1794319;79;21482;-79
2021/03/26 14:18:22;;;;;;;10.32;5.80;;;;;;;8.53;54.12;100255.03;1795520;79;21289;-78
2021/03/26 14:21:46;;;;;;;8.17;5.63;;;;;;;8.49;54.17;100257.74;1792055;80;21314;-78
2021/03/26 14:25:08;;;;;;;6.95;5.40;;;;;;;8.44;54.85;100256.88;1786795;80;21261;-78
2021/03/26 14:28:36;;;;;;;7.75;4.47;;;;;;;8.43;55.07;100261.98;1750882;81;21648;-78
2021/03/26 14:31:53;;;;;;;7.97;5.60;;;;;;;8.41;54.83;100259.40;1759790;81;21933;-78
2021/03/26 14:35:05;;;;;;;7.15;4.97;;;;;;;8.43;54.72;100265.56;1757934;81;21235;-78
2021/03/26 14:38:31;;;;;;;7.67;4.58;;;;;;;8.44;54.69;100265.90;1780720;80;21295;-77
2021/03/26 14:41:43;;;;;;;7.90;5.00;;;;;;;8.43;55.27;100258.74;1759954;81;21200;-78
2021/03/26 14:44:57;;;;;;;8.28;6.08;;;;;;;8.45;56.33;100271.69;1759639;81;21282;-78
2021/03/26 14:48:09;;;;;;;9.20;6.62;;;;;;;8.45;55.16;100269.48;1759464;81;21290;-78
2021/03/26 14:51:43;;;;;;;6.53;4.60;;;;;;;8.44;55.07;100269.98;1759745;81;21282;-78
2021/03/26 14:54:49;;;;;;;9.10;4.67;;;;;;;8.43;53.75;100272.38;1761606;81;21314;-78
2021/03/26 14:58:23;;;;;;;10.68;6.15;;;;;;;8.42;53.89;100271.16;1775046;80;21222;-78
2021/03/26 15:01:42;;;;;;;11.90;7.03;;;;;;;8.41;54.48;100271.66;1792820;80;21310;-78
2021/03/26 15:04:48;;;;;;;9.78;6.83;;;;;;;8.37;53.02;100273.52;1793250;80;21148;-78
2021/03/26 15:07:54;;;;;;;7.65;3.80;;;;;;;8.32;53.93;100271.25;1792094;78;21322;-78
2021/03/26 15:11:01;;;;;;;8.58;4.10;;;;;;;8.28;53.32;100279.91;1792735;80;21883;-78
2021/03/26 15:14:23;;;;;;;8.23;4.85;;;;;;;8.24;53.10;100279.91;1751755;80;21271;-78
2021/03/26 15:17:49;;;;;;;5.87;4.10;;;;;;;8.20;54.78;100283.46;1800029;78;21706;-78
2021/03/26 15:20:55;;;;;;;6.47;4.30;;;;;;;8.14;56.18;100282.24;1793434;80;21266;-78
2021/03/26 15:24:45;;;;;;;4.97;3.58;;;;;;;8.07;56.54;100289.34;1750630;80;21144;-78
2021/03/26 15:28:17;;;;;;;5.95;2.87;;;;;;;8.02;55.23;100286.75;1792878;78;21840;-78